< < Back
Terminal Aerodrome Forecast


Current Version              Previous Versions:   1  2  3  4  5  6  7  8  9  

Terminal Aerodrome Forecast

141
FTUS44 KMRX 010700 AAA
TAFCHA
TAF AMD
KCHA 010700Z 0107/0206 18006KT P6SM OVC025
     FM011800 16005KT P6SM OVC012
     FM020100 VRB02KT 4SM -SHRA BR OVC007=

Latest METAR

374
SAUS80 KWBC 011900 RRE
MTRCHA
METAR KCHA 011853Z 20006KT 10SM OVC018 09/04 A3040 RMK AO2 SLP296
T00940044


USA.gov is the U.S. government's official web portal to all federal, state and local government web resources and services.